createdAt,value
2022-09-01T00:01:51.997Z,15.05
2022-09-01T00:04:22.076Z,15.04
2022-09-01T00:06:50.772Z,14.91
2022-09-01T00:09:20.912Z,14.98
2022-09-01T00:11:54.411Z,14.94
2022-09-01T00:14:30.807Z,14.90
2022-09-01T00:17:00.585Z,14.87
2022-09-01T00:19:33.495Z,14.82
2022-09-01T00:22:01.885Z,14.77
2022-09-01T00:24:31.846Z,14.68
2022-09-01T00:27:00.468Z,14.60
2022-09-01T00:29:28.699Z,14.72
2022-09-01T00:31:56.777Z,14.68
2022-09-01T00:34:24.776Z,14.67
2022-09-01T00:36:53.022Z,14.65
2022-09-01T00:39:26.204Z,14.63
2022-09-01T00:41:56.129Z,14.63
2022-09-01T00:44:26.858Z,14.62
2022-09-01T00:46:59.761Z,14.47
2022-09-01T00:49:35.393Z,14.57
2022-09-01T00:52:07.865Z,14.56
2022-09-01T00:54:41.042Z,14.52
2022-09-01T00:57:12.849Z,14.35
2022-09-01T00:59:48.150Z,14.43
2022-09-01T01:02:16.583Z,14.41
2022-09-01T01:04:46.315Z,14.37
2022-09-01T01:07:15.891Z,14.24
2022-09-01T01:09:46.576Z,14.25
2022-09-01T01:12:18.558Z,14.23
2022-09-01T01:14:51.229Z,14.18
2022-09-01T01:17:22.735Z,14.15
2022-09-01T01:20:11.564Z,14.11
2022-09-01T01:23:06.465Z,14.04
2022-09-01T01:25:41.906Z,14.05
2022-09-01T01:28:13.645Z,14.05
2022-09-01T01:30:45.539Z,14.02
2022-09-01T01:33:13.590Z,13.99
2022-09-01T01:35:48.134Z,13.99
2022-09-01T01:38:16.600Z,13.95
2022-09-01T01:40:46.198Z,13.93
2022-09-01T01:43:23.142Z,13.93
2022-09-01T01:45:54.776Z,13.95
2022-09-01T01:48:28.217Z,13.94
2022-09-01T01:50:58.174Z,13.96
2022-09-01T01:53:26.780Z,13.95
2022-09-01T01:56:00.069Z,13.96
2022-09-01T01:58:32.625Z,13.93
2022-09-01T02:01:01.164Z,13.86
2022-09-01T02:03:38.511Z,13.86
2022-09-01T02:06:09.832Z,13.82
2022-09-01T02:08:40.725Z,13.80
2022-09-01T02:11:11.358Z,13.67
2022-09-01T02:13:40.102Z,13.74
2022-09-01T02:16:12.122Z,13.73
2022-09-01T02:18:48.032Z,13.70
2022-09-01T02:21:20.446Z,13.64
2022-09-01T02:23:50.959Z,13.66
2022-09-01T02:26:23.829Z,13.63
2022-09-01T02:28:55.364Z,13.64
2022-09-01T02:31:28.954Z,13.63
2022-09-01T02:34:01.146Z,13.60
2022-09-01T02:36:32.772Z,13.60
2022-09-01T02:39:01.192Z,13.54
2022-09-01T02:41:32.261Z,13.49
2022-09-01T02:44:02.376Z,13.45
2022-09-01T02:46:31.048Z,13.41
2022-09-01T02:49:00.640Z,13.36
2022-09-01T02:51:29.353Z,13.32
2022-09-01T02:53:57.959Z,13.26
2022-09-01T02:56:36.877Z,13.27
2022-09-01T02:59:11.050Z,13.24
2022-09-01T03:01:44.899Z,13.23
2022-09-01T03:04:15.797Z,13.21
2022-09-01T03:06:43.890Z,12.96
2022-09-01T03:09:16.892Z,13.18
2022-09-01T03:11:48.550Z,13.17
2022-09-01T03:14:17.291Z,13.14
2022-09-01T03:16:45.298Z,13.14
2022-09-01T03:19:15.144Z,13.14
2022-09-01T03:21:46.041Z,13.13
2022-09-01T03:24:19.452Z,13.12
2022-09-01T03:26:53.980Z,13.21
2022-09-01T03:29:21.955Z,13.22
2022-09-01T03:31:50.461Z,13.18
2022-09-01T03:34:23.599Z,13.17
2022-09-01T03:36:54.336Z,13.06
2022-09-01T03:39:29.752Z,13.10
2022-09-01T03:41:59.929Z,13.08
2022-09-01T03:44:28.895Z,13.07
2022-09-01T03:46:58.400Z,13.06
2022-09-01T03:49:28.768Z,13.03
2022-09-01T03:51:58.702Z,13.02
2022-09-01T03:54:30.331Z,13.00
2022-09-01T03:57:00.590Z,13.04
2022-09-01T03:59:37.858Z,12.99
2022-09-01T04:02:07.892Z,12.93
2022-09-01T04:04:39.082Z,12.98
2022-09-01T04:07:07.476Z,12.95
2022-09-01T04:09:37.415Z,12.93
2022-09-01T04:12:10.623Z,12.92
2022-09-01T04:14:40.276Z,12.90
2022-09-01T04:17:30.363Z,12.87
2022-09-01T04:19:58.971Z,12.86
2022-09-01T04:22:32.105Z,12.85
2022-09-01T04:25:00.517Z,12.82
2022-09-01T04:27:29.905Z,12.82
2022-09-01T04:29:58.757Z,12.83
2022-09-01T04:32:30.811Z,12.84
2022-09-01T04:35:02.299Z,12.79
2022-09-01T04:37:31.053Z,12.77
2022-09-01T04:40:04.365Z,12.72
2022-09-01T04:42:34.942Z,12.70
2022-09-01T04:45:10.088Z,12.69
2022-09-01T04:47:42.317Z,12.65
2022-09-01T04:50:17.325Z,12.67
2022-09-01T04:53:07.370Z,12.66
2022-09-01T04:55:49.909Z,12.62
2022-09-01T04:58:22.122Z,12.51
2022-09-01T05:00:53.099Z,12.69
2022-09-01T05:03:24.336Z,12.74
2022-09-01T05:06:15.865Z,12.66
2022-09-01T05:08:48.653Z,12.81
2022-09-01T05:11:29.557Z,12.74
2022-09-01T05:14:07.891Z,12.90
2022-09-01T05:16:41.094Z,12.96
2022-09-01T05:19:14.846Z,12.99
2022-09-01T05:21:46.913Z,13.03
2022-09-01T05:24:17.649Z,12.99
2022-09-01T05:26:47.459Z,12.92
2022-09-01T05:29:17.705Z,13.14
2022-09-01T05:31:50.391Z,13.17
2022-09-01T05:34:26.484Z,13.21
2022-09-01T05:36:57.239Z,13.42
2022-09-01T05:39:27.741Z,14.90
2022-09-01T05:41:55.811Z,16.18
2022-09-01T05:44:25.694Z,16.90
2022-09-01T05:46:57.800Z,17.29
2022-09-01T05:49:33.121Z,16.83
2022-09-01T05:52:05.045Z,16.46
2022-09-01T05:54:35.871Z,16.30
2022-09-01T05:57:30.495Z,16.07
2022-09-01T05:59:55.245Z,15.79
2022-09-01T06:02:34.372Z,15.57
2022-09-01T06:05:02.872Z,15.55
2022-09-01T06:07:40.935Z,15.48
2022-09-01T06:10:10.048Z,15.43
2022-09-01T06:12:40.647Z,15.25
2022-09-01T06:15:16.110Z,15.28
2022-09-01T06:17:57.333Z,15.31
2022-09-01T06:20:26.478Z,15.17
2022-09-01T06:22:54.962Z,15.43
2022-09-01T06:25:33.892Z,15.53
2022-09-01T06:28:05.741Z,15.53
2022-09-01T06:30:36.532Z,15.43
2022-09-01T06:33:12.949Z,15.40
2022-09-01T06:35:47.320Z,15.40
2022-09-01T06:38:17.984Z,15.47
2022-09-01T06:40:54.604Z,15.48
2022-09-01T06:43:24.276Z,15.61
2022-09-01T06:45:55.233Z,15.52
2022-09-01T06:48:26.155Z,15.47
2022-09-01T06:51:16.608Z,15.53
2022-09-01T06:53:54.106Z,15.63
2022-09-01T06:56:22.537Z,15.59
2022-09-01T06:58:53.834Z,15.54
2022-09-01T07:01:24.749Z,15.52
2022-09-01T07:03:57.078Z,15.60
2022-09-01T07:07:00.118Z,15.70
2022-09-01T07:09:47.122Z,15.67
2022-09-01T07:12:37.790Z,15.67
2022-09-01T07:17:59.150Z,15.72
2022-09-01T07:20:33.315Z,15.74
2022-09-01T07:23:06.567Z,15.87
2022-09-01T07:28:47.818Z,15.95
2022-09-01T07:42:56.940Z,16.35
2022-09-01T07:46:36.294Z,16.54
2022-09-01T07:51:36.454Z,16.74
2022-09-01T07:54:07.068Z,16.75
2022-09-01T07:56:39.903Z,16.83
2022-09-01T07:59:10.623Z,16.99
2022-09-01T08:01:51.102Z,17.15
2022-09-01T08:04:23.102Z,17.25
2022-09-01T08:06:53.169Z,17.38
2022-09-01T08:09:37.003Z,17.46
2022-09-01T08:12:07.558Z,17.51
2022-09-01T08:14:39.563Z,17.57
2022-09-01T08:19:59.883Z,17.70
2022-09-01T08:22:50.097Z,17.81
2022-09-01T08:25:24.990Z,17.93
2022-09-01T08:28:02.714Z,18.05
2022-09-01T08:30:32.493Z,18.19
2022-09-01T08:33:10.181Z,18.28
2022-09-01T08:35:39.854Z,18.29
2022-09-01T08:38:12.079Z,18.41
2022-09-01T08:40:42.399Z,18.49
2022-09-01T08:43:18.043Z,18.52
2022-09-01T08:45:50.509Z,18.69
2022-09-01T08:49:16.112Z,18.70
2022-09-01T08:51:20.751Z,18.69
2022-09-01T08:54:07.637Z,18.76
2022-09-01T08:56:37.506Z,18.80
2022-09-01T08:59:09.623Z,18.92
2022-09-01T09:02:09.289Z,19.08
2022-09-01T09:04:54.303Z,19.21
2022-09-01T09:07:38.466Z,19.23
2022-09-01T09:10:15.119Z,19.18
2022-09-01T09:12:57.610Z,19.41
2022-09-01T09:15:37.366Z,19.40
2022-09-01T09:18:20.645Z,19.41
2022-09-01T09:21:19.492Z,19.47
2022-09-01T09:23:51.871Z,19.42
2022-09-01T09:26:22.230Z,19.53
2022-09-01T09:28:50.970Z,19.60
2022-09-01T09:31:36.597Z,19.72
2022-09-01T09:34:05.039Z,19.79
2022-09-01T09:36:36.659Z,20.00
2022-09-01T09:39:13.918Z,20.01
2022-09-01T09:41:48.389Z,19.99
2022-09-01T09:44:25.531Z,20.13
2022-09-01T09:47:01.397Z,20.17
2022-09-01T09:49:36.374Z,20.33
2022-09-01T09:52:18.454Z,20.40
2022-09-01T09:55:07.252Z,20.46
2022-09-01T09:57:45.346Z,20.35
2022-09-01T10:00:24.593Z,20.45
2022-09-01T10:02:57.517Z,20.63
2022-09-01T10:05:38.474Z,20.81
2022-09-01T10:08:10.784Z,20.84
2022-09-01T10:10:44.212Z,20.75
2022-09-01T10:13:19.468Z,20.82
2022-09-01T10:15:51.337Z,20.92
2022-09-01T10:18:37.805Z,21.01
2022-09-01T10:21:12.553Z,21.12
2022-09-01T10:23:44.847Z,21.09
2022-09-01T10:26:18.987Z,20.95
2022-09-01T10:28:53.566Z,21.03
2022-09-01T10:31:23.176Z,21.14
2022-09-01T10:33:52.372Z,21.22
2022-09-01T10:36:24.629Z,21.30
2022-09-01T10:38:58.777Z,21.41
2022-09-01T10:41:59.647Z,21.25
2022-09-01T10:44:35.946Z,21.00
2022-09-01T10:47:14.755Z,20.93
2022-09-01T10:50:07.609Z,21.31
2022-09-01T10:52:56.743Z,21.45
2022-09-01T10:55:29.386Z,21.59
2022-09-01T10:59:31.134Z,21.64
2022-09-01T11:01:40.302Z,21.60
2022-09-01T11:03:58.871Z,21.66
2022-09-01T11:07:17.230Z,21.81
2022-09-01T11:10:34.387Z,21.89
2022-09-01T11:13:31.189Z,21.95
2022-09-01T11:16:52.425Z,22.00
2022-09-01T11:19:37.919Z,22.05
2022-09-01T11:22:35.322Z,22.19
2022-09-01T11:25:41.299Z,22.33
2022-09-01T11:28:52.028Z,22.40
2022-09-01T11:31:29.209Z,22.39
2022-09-01T11:34:23.631Z,22.41
2022-09-01T11:36:58.958Z,22.41
2022-09-01T11:39:42.350Z,22.38
2022-09-01T11:42:19.041Z,22.55
2022-09-01T11:44:54.076Z,22.76
2022-09-01T11:47:30.092Z,22.77
2022-09-01T11:50:06.673Z,22.82
2022-09-01T11:52:41.544Z,22.85
2022-09-01T11:55:12.468Z,22.80
2022-09-01T11:57:44.378Z,22.80
2022-09-01T12:00:28.097Z,22.76
2022-09-01T12:02:58.214Z,22.89
2022-09-01T12:05:39.062Z,22.92
2022-09-01T12:08:15.132Z,22.91
2022-09-01T12:10:44.408Z,22.88
2022-09-01T12:13:19.445Z,23.03
2022-09-01T12:16:16.916Z,22.99
2022-09-01T12:18:52.894Z,22.65
2022-09-01T12:21:24.476Z,22.50
2022-09-01T12:23:53.255Z,22.32
2022-09-01T12:26:26.507Z,22.14
2022-09-01T12:28:58.125Z,22.08
2022-09-01T12:31:27.631Z,21.94
2022-09-01T12:33:57.396Z,22.13
2022-09-01T12:36:28.822Z,22.12
2022-09-01T12:38:58.283Z,22.41
2022-09-01T12:41:39.020Z,22.36
2022-09-01T12:44:30.700Z,22.32
2022-09-01T12:47:01.636Z,22.17
2022-09-01T12:49:47.937Z,22.30
2022-09-01T12:52:25.567Z,22.30
2022-09-01T12:55:47.471Z,22.22
2022-09-01T12:58:08.267Z,22.52
2022-09-01T13:00:58.530Z,22.67
2022-09-01T13:03:29.690Z,22.53
2022-09-01T13:06:08.865Z,22.51
2022-09-01T13:08:37.778Z,22.77
2022-09-01T13:11:08.405Z,23.13
2022-09-01T13:13:37.569Z,23.32
2022-09-01T13:16:13.155Z,23.43
2022-09-01T13:21:35.862Z,23.08
2022-09-01T13:24:05.358Z,22.80
2022-09-01T13:26:42.082Z,22.82
2022-09-01T13:29:10.232Z,23.08
2022-09-01T13:32:16.601Z,23.10
2022-09-01T13:37:32.063Z,22.52
2022-09-01T13:40:01.620Z,22.25
2022-09-01T13:42:39.295Z,22.00
2022-09-01T13:45:09.084Z,21.85
2022-09-01T13:53:27.693Z,22.70
2022-09-01T13:58:30.256Z,23.01
2022-09-01T14:01:01.987Z,22.80
2022-09-01T14:03:32.292Z,22.55
2022-09-01T14:06:03.195Z,22.32
2022-09-01T14:08:33.958Z,22.11
2022-09-01T14:11:04.773Z,21.99
2022-09-01T14:13:34.398Z,22.05
2022-09-01T14:16:03.181Z,22.37
2022-09-01T14:18:36.700Z,22.67
2022-09-01T14:21:13.545Z,22.79
2022-09-01T14:23:43.403Z,23.04
2022-09-01T14:26:13.079Z,23.12
2022-09-01T14:28:51.686Z,23.07
2022-09-01T14:31:20.391Z,22.91
2022-09-01T14:33:49.235Z,22.85
2022-09-01T14:36:23.408Z,22.82
2022-09-01T14:38:55.954Z,22.56
2022-09-01T14:41:26.438Z,22.45
2022-09-01T14:44:02.816Z,22.26
2022-09-01T14:46:34.471Z,22.26
2022-09-01T14:49:04.298Z,22.40
2022-09-01T14:54:23.222Z,22.48
2022-09-01T14:59:41.716Z,22.72
2022-09-01T15:02:21.981Z,22.74
2022-09-01T15:04:51.356Z,22.73
2022-09-01T15:07:19.567Z,22.74
2022-09-01T15:09:49.423Z,22.86
2022-09-01T15:12:17.598Z,22.90
2022-09-01T15:14:45.620Z,22.95
2022-09-01T15:17:14.333Z,23.03
2022-09-01T15:19:45.405Z,23.13
2022-09-01T15:22:20.552Z,23.39
2022-09-01T15:24:49.887Z,23.57
2022-09-01T15:27:17.999Z,23.56
2022-09-01T15:29:49.618Z,23.46
2022-09-01T15:32:20.760Z,23.39
2022-09-01T15:34:55.859Z,23.35
2022-09-01T15:37:23.956Z,23.22
2022-09-01T15:39:53.356Z,23.22
2022-09-01T15:42:21.851Z,23.09
2022-09-01T15:44:53.560Z,22.77
2022-09-01T15:47:21.490Z,22.55
2022-09-01T15:49:50.031Z,22.39
2022-09-01T15:52:21.217Z,22.23
2022-09-01T15:54:49.155Z,22.14
2022-09-01T15:57:19.218Z,22.02
2022-09-01T15:59:47.230Z,21.92
2022-09-01T16:02:21.010Z,21.82
2022-09-01T16:04:56.805Z,21.86
2022-09-01T16:07:32.217Z,21.99
2022-09-01T16:10:01.193Z,22.13
2022-09-01T16:12:31.568Z,22.24
2022-09-01T16:14:59.404Z,22.27
2022-09-01T16:17:42.493Z,22.23
2022-09-01T16:20:15.995Z,22.15
2022-09-01T16:22:49.585Z,22.16
2022-09-01T16:25:31.730Z,22.12
2022-09-01T16:28:14.672Z,22.13
2022-09-01T16:30:45.699Z,22.04
2022-09-01T16:33:20.036Z,22.08
2022-09-01T16:36:00.515Z,22.04
2022-09-01T16:38:41.854Z,21.94
2022-09-01T16:41:30.076Z,21.96
2022-09-01T16:44:16.886Z,21.92
2022-09-01T16:46:56.231Z,21.89
2022-09-01T16:49:31.861Z,21.84
2022-09-01T16:52:05.573Z,21.82
2022-09-01T16:55:05.024Z,21.79
2022-09-01T16:57:43.161Z,21.70
2022-09-01T17:00:18.862Z,21.64
2022-09-01T17:02:58.379Z,21.60
2022-09-01T17:05:31.057Z,21.55
2022-09-01T17:08:17.725Z,21.50
2022-09-01T17:10:54.963Z,21.38
2022-09-01T17:13:28.294Z,21.35
2022-09-01T17:16:07.998Z,21.31
2022-09-01T17:18:40.765Z,21.27
2022-09-01T17:21:14.444Z,21.23
2022-09-01T17:24:01.630Z,21.16
2022-09-01T17:26:32.950Z,21.09
2022-09-01T17:29:12.363Z,21.05
2022-09-01T17:31:59.835Z,20.96
2022-09-01T17:34:41.564Z,20.92
2022-09-01T17:37:34.192Z,20.87
2022-09-01T17:40:11.595Z,20.80
2022-09-01T17:42:50.319Z,20.67
2022-09-01T17:45:28.910Z,20.62
2022-09-01T17:48:09.004Z,20.60
2022-09-01T17:50:59.487Z,20.58
2022-09-01T17:53:43.535Z,20.55
2022-09-01T17:56:26.809Z,20.48
2022-09-01T17:59:10.490Z,20.39
2022-09-01T18:01:47.523Z,20.35
2022-09-01T18:04:40.664Z,20.26
2022-09-01T18:07:16.858Z,20.18
2022-09-01T18:09:50.533Z,20.11
2022-09-01T18:12:22.258Z,20.05
2022-09-01T18:14:57.895Z,19.98
2022-09-01T18:17:34.123Z,19.92
2022-09-01T18:20:08.826Z,19.88
2022-09-01T18:22:43.245Z,19.79
2022-09-01T18:25:19.130Z,19.74
2022-09-01T18:27:51.315Z,19.71
2022-09-01T18:30:51.598Z,19.65
2022-09-01T18:33:26.232Z,19.59
2022-09-01T18:36:12.738Z,19.46
2022-09-01T18:38:47.057Z,19.48
2022-09-01T18:41:33.599Z,19.45
2022-09-01T18:44:33.567Z,19.38
2022-09-01T18:47:07.313Z,19.33
2022-09-01T18:49:45.611Z,19.27
2022-09-01T18:52:28.856Z,19.22
2022-09-01T18:55:04.870Z,19.17
2022-09-01T18:57:37.293Z,19.14
2022-09-01T19:00:17.792Z,19.06
2022-09-01T19:03:04.626Z,19.02
2022-09-01T19:06:00.353Z,18.96
2022-09-01T19:08:45.559Z,18.90
2022-09-01T19:11:23.052Z,18.87
2022-09-01T19:14:00.643Z,18.82
2022-09-01T19:16:46.298Z,18.75
2022-09-01T19:19:26.190Z,18.67
2022-09-01T19:21:56.414Z,18.60
2022-09-01T19:24:29.368Z,18.57
2022-09-01T19:27:02.075Z,18.52
2022-09-01T19:29:36.287Z,18.43
2022-09-01T19:32:10.097Z,18.40
2022-09-01T19:34:42.588Z,18.38
2022-09-01T19:37:13.963Z,18.38
2022-09-01T19:39:50.857Z,18.33
2022-09-01T19:42:27.971Z,18.33
2022-09-01T19:45:12.410Z,18.31
2022-09-01T19:47:43.098Z,18.25
2022-09-01T19:50:17.654Z,18.22
2022-09-01T19:52:56.800Z,18.18
2022-09-01T19:55:31.911Z,18.15
2022-09-01T19:58:04.557Z,18.09
2022-09-01T20:00:42.888Z,18.03
2022-09-01T20:03:23.467Z,17.96
2022-09-01T20:05:58.293Z,17.94
2022-09-01T20:08:34.688Z,17.89
2022-09-01T20:11:11.091Z,17.82
2022-09-01T20:14:14.219Z,17.79
2022-09-01T20:16:48.544Z,17.73
2022-09-01T20:19:25.203Z,17.68
2022-09-01T20:21:53.162Z,17.67
2022-09-01T20:24:31.399Z,17.61
2022-09-01T20:27:04.105Z,17.55
2022-09-01T20:29:42.093Z,17.47
2022-09-01T20:32:27.603Z,17.43
2022-09-01T20:34:59.844Z,17.35
2022-09-01T20:37:34.693Z,17.32
2022-09-01T20:40:07.100Z,17.19
2022-09-01T20:42:45.461Z,17.25
2022-09-01T20:45:17.044Z,17.17
2022-09-01T20:47:50.457Z,17.08
2022-09-01T20:50:20.147Z,17.13
2022-09-01T20:53:10.666Z,17.06
2022-09-01T20:55:49.093Z,17.08
2022-09-01T20:58:32.838Z,16.97
2022-09-01T21:01:14.217Z,17.04
2022-09-01T21:04:02.071Z,17.02
2022-09-01T21:07:00.736Z,16.99
2022-09-01T21:09:47.013Z,16.91
2022-09-01T21:12:32.152Z,16.91
2022-09-01T21:15:26.490Z,16.88
2022-09-01T21:18:09.561Z,16.85
2022-09-01T21:21:07.516Z,16.82
2022-09-01T21:23:38.854Z,16.78
2022-09-01T21:26:09.512Z,16.62
2022-09-01T21:28:42.222Z,16.72
2022-09-01T21:31:14.065Z,16.70
2022-09-01T21:33:45.802Z,16.68
2022-09-01T21:36:13.994Z,16.66
2022-09-01T21:38:47.745Z,16.64
2022-09-01T21:41:16.172Z,16.55
2022-09-01T21:43:47.239Z,16.54
2022-09-01T21:46:16.899Z,16.50
2022-09-01T21:48:44.902Z,16.46
2022-09-01T21:51:19.267Z,16.41
2022-09-01T21:53:47.324Z,16.37
2022-09-01T21:56:16.613Z,16.34
2022-09-01T21:58:44.806Z,16.07
2022-09-01T22:01:22.613Z,16.26
2022-09-01T22:03:51.265Z,15.88
2022-09-01T22:06:19.501Z,16.02
2022-09-01T22:08:48.067Z,16.14
2022-09-01T22:11:17.866Z,16.12
2022-09-01T22:13:48.850Z,16.14
2022-09-01T22:16:23.450Z,16.10
2022-09-01T22:18:53.943Z,16.06
2022-09-01T22:21:23.115Z,15.90
2022-09-01T22:23:52.082Z,16.01
2022-09-01T22:26:24.585Z,15.89
2022-09-01T22:28:55.229Z,15.77
2022-09-01T22:31:30.818Z,15.88
2022-09-01T22:34:02.428Z,15.77
2022-09-01T22:36:35.044Z,15.55
2022-09-01T22:39:07.386Z,15.85
2022-09-01T22:41:36.869Z,15.71
2022-09-01T22:44:05.534Z,15.63
2022-09-01T22:46:35.950Z,15.80
2022-09-01T22:49:06.657Z,15.79
2022-09-01T22:51:36.293Z,15.71
2022-09-01T22:54:04.474Z,15.74
2022-09-01T22:56:35.960Z,15.72
2022-09-01T22:59:07.745Z,15.68
2022-09-01T23:01:38.733Z,15.69
2022-09-01T23:04:09.940Z,15.65
2022-09-01T23:06:41.601Z,15.61
2022-09-01T23:09:10.204Z,15.59
2022-09-01T23:11:44.194Z,15.52
2022-09-01T23:14:12.882Z,15.50
2022-09-01T23:16:41.789Z,15.53
2022-09-01T23:19:12.158Z,15.51
2022-09-01T23:21:40.546Z,15.35
2022-09-01T23:24:09.306Z,15.41
2022-09-01T23:26:37.540Z,15.40
2022-09-01T23:29:07.038Z,15.37
2022-09-01T23:31:38.467Z,15.34
2022-09-01T23:34:09.361Z,15.31
2022-09-01T23:36:39.486Z,15.26
2022-09-01T23:39:08.384Z,15.22
2022-09-01T23:41:40.165Z,15.05
2022-09-01T23:44:14.654Z,15.15
2022-09-01T23:46:45.623Z,15.15
2022-09-01T23:49:16.692Z,15.10
2022-09-01T23:51:48.741Z,15.05
2022-09-01T23:54:18.028Z,15.06
2022-09-01T23:56:46.835Z,15.02
2022-09-01T23:59:16.256Z,14.96
